TRA5061 EHRD-LEGE
Flight info
| Callsign | TRA5061 |
|---|---|
| Flight time | 1h 38m |
| Altitude | 33000 |
| Route | WOODY N872 MEDIL/N0444F370 DCT KOVIN DCT DUCRA DCT RESMI DCT DEKOD DCT DISAK DCT DIRMO DCT VALKU DCT ATSUP DCT MINSO DCT DEGOL DCT PPG A27 KANIG |
| Aircraft | B738/M-SDE2E3FGHIJ1RWXYZ/LB1 |
Departure
| Time | 2026-04-28 14:37 |
|---|---|
| Airport | Rotterdam The Hague Airport (EHRD) |
Arrival
| Time | 2026-04-28 16:16 |
|---|---|
| Airport | Girona-Costa Brava Airport (LEGE) |
| Time | Latitude | Longitude | Altitude | Speed | Heading |
|---|---|---|---|---|---|
| 2026-04-28 14:15 | 51.95017 | 4.43505 | 1 ft | 0 kts | 326° |
| 2026-04-28 14:16 | 51.95017 | 4.43506 | 1 ft | 0 kts | 326° |
| 2026-04-28 14:33 | 51.95021 | 4.43501 | 0 ft | 2 kts | 326° |
| 2026-04-28 14:34 | 51.95038 | 4.43493 | 8 ft | 3 kts | 7° |
| 2026-04-28 14:34 | 51.95067 | 4.43526 | 0 ft | 7 kts | 43° |
| 2026-04-28 14:34 | 51.95094 | 4.43567 | 0 ft | 9 kts | 21° |
| 2026-04-28 14:35 | 51.95185 | 4.43495 | 0 ft | 14 kts | 327° |
| 2026-04-28 14:35 | 51.95241 | 4.43414 | 0 ft | 8 kts | 273° |
| 2026-04-28 14:35 | 51.95208 | 4.43311 | 0 ft | 13 kts | 237° |
| 2026-04-28 14:35 | 51.95150 | 4.43165 | 0 ft | 18 kts | 239° |
| 2026-04-28 14:36 | 51.95110 | 4.43021 | 0 ft | 6 kts | 253° |
| 2026-04-28 14:36 | 51.95118 | 4.42959 | 0 ft | 6 kts | 301° |
| 2026-04-28 14:36 | 51.95151 | 4.42909 | 0 ft | 7 kts | 325° |
| 2026-04-28 14:36 | 51.95199 | 4.42859 | 1 ft | 8 kts | 331° |
| 2026-04-28 14:37 | 51.95241 | 4.42904 | 1 ft | 10 kts | 57° |
| 2026-04-28 14:37 | 51.95379 | 4.43250 | 0 ft | 74 kts | 57° |
| 2026-04-28 14:37 | 51.95785 | 4.44267 | 3 ft | 139 kts | 57° |
| 2026-04-28 14:37 | 51.96338 | 4.45675 | 637 ft | 148 kts | 59° |
| 2026-04-28 14:38 | 51.96855 | 4.47111 | 1570 ft | 149 kts | 60° |
| 2026-04-28 14:38 | 51.97395 | 4.48671 | 2138 ft | 171 kts | 61° |
| 2026-04-28 14:38 | 51.98018 | 4.50481 | 2434 ft | 197 kts | 65° |
| 2026-04-28 14:38 | 51.98120 | 4.52769 | 2864 ft | 214 kts | 104° |
| 2026-04-28 14:39 | 51.97363 | 4.54909 | 3386 ft | 235 kts | 129° |
| 2026-04-28 14:39 | 51.95897 | 4.56351 | 3862 ft | 260 kts | 159° |
| 2026-04-28 14:39 | 51.94097 | 4.56571 | 4584 ft | 267 kts | 181° |
| 2026-04-28 14:39 | 51.92252 | 4.56022 | 4926 ft | 271 kts | 187° |
| 2026-04-28 14:40 | 51.90407 | 4.55276 | 4962 ft | 274 kts | 189° |
| 2026-04-28 14:40 | 51.89784 | 4.55015 | 4963 ft | 273 kts | 189° |
| 2026-04-28 14:40 | 51.86735 | 4.53745 | 5043 ft | 275 kts | 189° |
| 2026-04-28 14:40 | 51.84866 | 4.52995 | 5803 ft | 274 kts | 188° |
| 2026-04-28 14:41 | 51.83013 | 4.52266 | 6781 ft | 274 kts | 188° |
| 2026-04-28 14:41 | 51.81145 | 4.51547 | 7590 ft | 278 kts | 188° |
| 2026-04-28 14:41 | 51.79249 | 4.50829 | 8404 ft | 282 kts | 188° |
| 2026-04-28 14:41 | 51.77326 | 4.50107 | 9229 ft | 284 kts | 188° |
| 2026-04-28 14:42 | 51.75387 | 4.49383 | 10072 ft | 287 kts | 188° |
| 2026-04-28 14:42 | 51.73412 | 4.48650 | 10649 ft | 299 kts | 189° |
| 2026-04-28 14:42 | 51.71310 | 4.47875 | 10883 ft | 322 kts | 188° |
| 2026-04-28 14:42 | 51.69103 | 4.47063 | 11296 ft | 335 kts | 191° |
| 2026-04-28 14:43 | 51.67556 | 4.46489 | 11719 ft | 340 kts | 189° |
| 2026-04-28 14:43 | 51.64481 | 4.45350 | 12763 ft | 344 kts | 191° |
| 2026-04-28 14:43 | 51.62928 | 4.44777 | 13286 ft | 346 kts | 189° |
| 2026-04-28 14:43 | 51.60575 | 4.43909 | 14113 ft | 349 kts | 191° |
| 2026-04-28 14:44 | 51.58185 | 4.43031 | 14802 ft | 354 kts | 191° |
| 2026-04-28 14:44 | 51.55768 | 4.42147 | 15519 ft | 359 kts | 191° |
| 2026-04-28 14:44 | 51.53320 | 4.41249 | 16257 ft | 363 kts | 191° |
| 2026-04-28 14:44 | 51.50846 | 4.40342 | 16938 ft | 368 kts | 189° |
| 2026-04-28 14:45 | 51.48344 | 4.39427 | 17766 ft | 369 kts | 191° |
| 2026-04-28 14:45 | 51.45846 | 4.38514 | 18656 ft | 368 kts | 190° |
| 2026-04-28 14:45 | 51.43348 | 4.37602 | 19363 ft | 370 kts | 191° |
| 2026-04-28 14:45 | 51.40837 | 4.36637 | 19957 ft | 375 kts | 194° |
| 2026-04-28 14:46 | 51.38384 | 4.35086 | 20530 ft | 382 kts | 204° |
| 2026-04-28 14:46 | 51.35966 | 4.33219 | 21050 ft | 389 kts | 204° |
| 2026-04-28 14:46 | 51.33517 | 4.31332 | 21623 ft | 393 kts | 202° |
| 2026-04-28 14:46 | 51.31037 | 4.29456 | 22232 ft | 396 kts | 202° |
| 2026-04-28 14:47 | 51.28534 | 4.27555 | 22811 ft | 400 kts | 204° |
| 2026-04-28 14:47 | 51.26006 | 4.25627 | 23380 ft | 404 kts | 202° |
| 2026-04-28 14:47 | 51.23470 | 4.23694 | 23979 ft | 404 kts | 202° |
| 2026-04-28 14:47 | 51.20926 | 4.21758 | 24459 ft | 408 kts | 202° |
| 2026-04-28 14:48 | 51.18356 | 4.19808 | 24932 ft | 411 kts | 204° |
| 2026-04-28 14:48 | 51.15752 | 4.17897 | 25389 ft | 413 kts | 200° |
| 2026-04-28 14:48 | 51.13100 | 4.16310 | 25878 ft | 413 kts | 195° |
| 2026-04-28 14:48 | 51.10323 | 4.14832 | 26282 ft | 417 kts | 196° |
| 2026-04-28 14:49 | 51.07577 | 4.13408 | 26634 ft | 422 kts | 196° |
| 2026-04-28 14:49 | 51.04784 | 4.11944 | 27065 ft | 425 kts | 196° |
| 2026-04-28 14:49 | 51.01974 | 4.10448 | 27514 ft | 427 kts | 195° |
| 2026-04-28 14:49 | 50.99148 | 4.08925 | 27844 ft | 431 kts | 197° |
| 2026-04-28 14:50 | 50.96299 | 4.07372 | 28287 ft | 433 kts | 197° |
| 2026-04-28 14:50 | 50.93454 | 4.05818 | 28753 ft | 434 kts | 197° |
| 2026-04-28 14:50 | 50.90587 | 4.04258 | 29122 ft | 437 kts | 197° |
| 2026-04-28 14:50 | 50.87693 | 4.02679 | 29431 ft | 441 kts | 197° |
| 2026-04-28 14:51 | 50.84810 | 4.00945 | 29746 ft | 446 kts | 199° |
| 2026-04-28 14:51 | 50.81932 | 3.99090 | 30121 ft | 448 kts | 200° |
| 2026-04-28 14:51 | 50.79058 | 3.97201 | 30621 ft | 444 kts | 202° |
| 2026-04-28 14:51 | 50.76232 | 3.95348 | 31319 ft | 436 kts | 202° |
| 2026-04-28 14:52 | 50.73450 | 3.93541 | 31998 ft | 429 kts | 201° |
| 2026-04-28 14:52 | 50.70688 | 3.91764 | 32347 ft | 430 kts | 202° |
| 2026-04-28 14:52 | 50.67901 | 3.89983 | 32660 ft | 431 kts | 201° |
| 2026-04-28 14:52 | 50.65143 | 3.88225 | 33270 ft | 425 kts | 201° |
| 2026-04-28 14:53 | 50.62405 | 3.86483 | 33674 ft | 424 kts | 202° |
| 2026-04-28 14:53 | 50.59651 | 3.84732 | 33828 ft | 429 kts | 202° |
| 2026-04-28 14:53 | 50.56901 | 3.82981 | 34345 ft | 423 kts | 202° |
| 2026-04-28 14:53 | 50.54216 | 3.81192 | 34848 ft | 418 kts | 203° |
| 2026-04-28 14:54 | 50.51539 | 3.79354 | 35024 ft | 421 kts | 204° |
| 2026-04-28 14:54 | 50.48849 | 3.77494 | 35261 ft | 422 kts | 204° |
| 2026-04-28 14:54 | 50.46161 | 3.75642 | 35590 ft | 421 kts | 204° |
| 2026-04-28 14:54 | 50.43470 | 3.73799 | 35778 ft | 423 kts | 203° |
| 2026-04-28 14:55 | 50.40756 | 3.71950 | 35963 ft | 425 kts | 203° |
| 2026-04-28 14:55 | 50.38052 | 3.70112 | 36285 ft | 424 kts | 203° |
| 2026-04-28 14:55 | 50.35339 | 3.68273 | 36479 ft | 426 kts | 203° |
| 2026-04-28 14:55 | 50.32611 | 3.66425 | 36644 ft | 429 kts | 202° |
| 2026-04-28 14:56 | 50.29878 | 3.64578 | 36925 ft | 428 kts | 203° |
| 2026-04-28 14:56 | 50.27147 | 3.62734 | 37153 ft | 429 kts | 203° |
| 2026-04-28 14:56 | 50.24399 | 3.60880 | 37304 ft | 431 kts | 203° |
| 2026-04-28 14:56 | 50.21644 | 3.59023 | 37473 ft | 433 kts | 202° |
| 2026-04-28 14:57 | 50.18873 | 3.57157 | 37681 ft | 434 kts | 203° |
| 2026-04-28 14:57 | 50.13329 | 3.53431 | 37943 ft | 438 kts | 203° |
| 2026-04-28 14:57 | 50.10515 | 3.51543 | 38431 ft | 433 kts | 203° |
| 2026-04-28 14:58 | 50.07754 | 3.49692 | 38744 ft | 431 kts | 203° |
| 2026-04-28 14:58 | 50.04999 | 3.47849 | 38879 ft | 433 kts | 203° |
| 2026-04-28 14:58 | 50.02239 | 3.46004 | 39093 ft | 430 kts | 203° |
| 2026-04-28 14:59 | 49.96726 | 3.42326 | 39091 ft | 437 kts | 203° |
| 2026-04-28 14:59 | 49.91114 | 3.38591 | 39092 ft | 441 kts | 203° |
| 2026-04-28 15:00 | 49.85485 | 3.34855 | 39088 ft | 438 kts | 203° |
| 2026-04-28 15:00 | 49.79927 | 3.31177 | 39070 ft | 431 kts | 203° |
| 2026-04-28 15:01 | 49.74414 | 3.27534 | 39075 ft | 431 kts | 204° |
| 2026-04-28 15:01 | 49.68894 | 3.23897 | 39077 ft | 432 kts | 204° |
| 2026-04-28 15:02 | 49.63335 | 3.20242 | 39077 ft | 436 kts | 204° |
| 2026-04-28 15:02 | 49.57736 | 3.16571 | 39083 ft | 438 kts | 204° |
| 2026-04-28 15:03 | 49.52128 | 3.12903 | 39070 ft | 439 kts | 203° |
| 2026-04-28 15:03 | 49.46655 | 3.08846 | 39058 ft | 434 kts | 214° |
| 2026-04-28 15:04 | 49.41668 | 3.03722 | 39060 ft | 429 kts | 214° |
| 2026-04-28 15:04 | 49.36732 | 2.98601 | 39066 ft | 429 kts | 214° |
| 2026-04-28 15:05 | 49.31738 | 2.93504 | 39076 ft | 433 kts | 214° |
| 2026-04-28 15:05 | 49.26686 | 2.88401 | 39050 ft | 436 kts | 214° |
| 2026-04-28 15:06 | 49.21616 | 2.83302 | 39055 ft | 434 kts | 214° |
| 2026-04-28 15:06 | 49.16589 | 2.78255 | 39070 ft | 431 kts | 214° |
| 2026-04-28 15:07 | 49.11596 | 2.73254 | 39063 ft | 428 kts | 214° |
| 2026-04-28 15:07 | 49.06622 | 2.68283 | 39075 ft | 427 kts | 214° |
| 2026-04-28 15:08 | 49.01662 | 2.63336 | 39083 ft | 426 kts | 214° |
| 2026-04-28 15:08 | 48.96728 | 2.58429 | 39086 ft | 427 kts | 214° |
| 2026-04-28 15:09 | 48.91745 | 2.53485 | 39055 ft | 428 kts | 214° |
| 2026-04-28 15:09 | 48.86745 | 2.48532 | 39055 ft | 430 kts | 214° |
| 2026-04-28 15:10 | 48.81712 | 2.43557 | 39054 ft | 432 kts | 214° |
| 2026-04-28 15:10 | 48.76662 | 2.38577 | 39049 ft | 434 kts | 214° |
| 2026-04-28 15:11 | 48.71583 | 2.33580 | 39045 ft | 436 kts | 214° |
| 2026-04-28 15:11 | 48.66491 | 2.28582 | 39048 ft | 437 kts | 214° |
| 2026-04-28 15:12 | 48.61387 | 2.23584 | 39056 ft | 437 kts | 214° |
| 2026-04-28 15:12 | 48.56069 | 2.19165 | 39051 ft | 438 kts | 202° |
| 2026-04-28 15:13 | 48.50170 | 2.16897 | 39052 ft | 438 kts | 193° |
| 2026-04-28 15:13 | 48.44211 | 2.15083 | 39041 ft | 436 kts | 193° |
| 2026-04-28 15:14 | 48.38293 | 2.13211 | 39033 ft | 433 kts | 194° |
| 2026-04-28 15:14 | 48.32411 | 2.11319 | 39037 ft | 431 kts | 194° |
| 2026-04-28 15:15 | 48.26446 | 2.10364 | 39032 ft | 434 kts | 180° |
| 2026-04-28 15:15 | 48.20443 | 2.11614 | 39019 ft | 436 kts | 174° |
| 2026-04-28 15:16 | 48.14457 | 2.12966 | 39026 ft | 435 kts | 175° |
| 2026-04-28 15:16 | 48.08450 | 2.13673 | 39024 ft | 432 kts | 181° |
| 2026-04-28 15:17 | 48.02441 | 2.13936 | 39024 ft | 433 kts | 182° |
| 2026-04-28 15:17 | 47.96445 | 2.14208 | 39018 ft | 434 kts | 181° |
| 2026-04-28 15:18 | 47.90396 | 2.14534 | 39026 ft | 436 kts | 181° |
| 2026-04-28 15:18 | 47.84319 | 2.14884 | 39024 ft | 438 kts | 181° |
| 2026-04-28 15:19 | 47.78221 | 2.15240 | 39004 ft | 439 kts | 181° |
| 2026-04-28 15:19 | 47.72116 | 2.15594 | 39008 ft | 440 kts | 181° |
| 2026-04-28 15:20 | 47.66003 | 2.15947 | 39009 ft | 440 kts | 181° |
| 2026-04-28 15:20 | 47.59885 | 2.16299 | 39005 ft | 440 kts | 181° |
| 2026-04-28 15:21 | 47.53773 | 2.16650 | 39001 ft | 439 kts | 181° |
| 2026-04-28 15:21 | 47.47670 | 2.17000 | 38996 ft | 438 kts | 181° |
| 2026-04-28 15:22 | 47.41581 | 2.17348 | 38993 ft | 437 kts | 181° |
| 2026-04-28 15:22 | 47.35508 | 2.17694 | 38975 ft | 436 kts | 181° |
| 2026-04-28 15:23 | 47.29448 | 2.18038 | 38988 ft | 435 kts | 181° |
| 2026-04-28 15:23 | 47.23398 | 2.18381 | 38988 ft | 434 kts | 181° |
| 2026-04-28 15:24 | 47.17366 | 2.18722 | 38978 ft | 434 kts | 181° |
| 2026-04-28 15:24 | 47.11338 | 2.19078 | 38974 ft | 434 kts | 179° |
| 2026-04-28 15:25 | 47.05423 | 2.21052 | 38979 ft | 442 kts | 162° |
| 2026-04-28 15:25 | 46.99717 | 2.24438 | 38976 ft | 442 kts | 162° |
| 2026-04-28 15:26 | 46.94024 | 2.27851 | 38972 ft | 442 kts | 162° |
| 2026-04-28 15:26 | 46.88313 | 2.31213 | 38982 ft | 442 kts | 162° |
| 2026-04-28 15:27 | 46.82599 | 2.34539 | 38978 ft | 442 kts | 162° |
| 2026-04-28 15:27 | 46.76884 | 2.37849 | 38971 ft | 442 kts | 162° |
| 2026-04-28 15:28 | 46.71164 | 2.41155 | 38974 ft | 442 kts | 162° |
| 2026-04-28 15:28 | 46.65446 | 2.44453 | 38965 ft | 442 kts | 163° |
| 2026-04-28 15:29 | 46.59722 | 2.47748 | 38978 ft | 443 kts | 163° |
| 2026-04-28 15:29 | 46.53988 | 2.51040 | 38970 ft | 443 kts | 162° |
| 2026-04-28 15:30 | 46.48245 | 2.54331 | 38976 ft | 444 kts | 163° |
| 2026-04-28 15:30 | 46.43471 | 2.57061 | 38984 ft | 444 kts | 163° |
| 2026-04-28 15:31 | 46.37717 | 2.60344 | 38981 ft | 445 kts | 163° |
| 2026-04-28 15:31 | 46.31959 | 2.63622 | 38977 ft | 445 kts | 163° |
| 2026-04-28 15:32 | 46.26184 | 2.66902 | 38986 ft | 446 kts | 163° |
| 2026-04-28 15:32 | 46.20409 | 2.70175 | 38981 ft | 446 kts | 163° |
| 2026-04-28 15:33 | 46.14628 | 2.73445 | 38989 ft | 446 kts | 163° |
| 2026-04-28 15:33 | 46.08852 | 2.76705 | 38978 ft | 445 kts | 163° |
| 2026-04-28 15:34 | 46.03091 | 2.79950 | 38987 ft | 445 kts | 163° |
| 2026-04-28 15:34 | 45.97319 | 2.83158 | 38992 ft | 444 kts | 164° |
| 2026-04-28 15:35 | 45.91518 | 2.86220 | 38986 ft | 444 kts | 165° |
| 2026-04-28 15:35 | 45.82846 | 2.90786 | 39001 ft | 445 kts | 164° |
| 2026-04-28 15:36 | 45.77029 | 2.93851 | 39000 ft | 445 kts | 166° |
| 2026-04-28 15:36 | 45.70988 | 2.95358 | 38985 ft | 433 kts | 185° |
| 2026-04-28 15:37 | 45.64981 | 2.95151 | 39017 ft | 432 kts | 186° |
| 2026-04-28 15:37 | 45.58999 | 2.94914 | 39012 ft | 433 kts | 186° |
| 2026-04-28 15:38 | 45.52963 | 2.94720 | 39006 ft | 434 kts | 186° |
| 2026-04-28 15:38 | 45.46923 | 2.94553 | 39025 ft | 435 kts | 186° |
| 2026-04-28 15:39 | 45.40871 | 2.94392 | 39031 ft | 435 kts | 186° |
| 2026-04-28 15:39 | 45.34818 | 2.94231 | 39029 ft | 435 kts | 186° |
| 2026-04-28 15:40 | 45.28764 | 2.94069 | 39026 ft | 435 kts | 186° |
| 2026-04-28 15:40 | 45.22717 | 2.93908 | 39036 ft | 434 kts | 186° |
| 2026-04-28 15:41 | 45.16677 | 2.93747 | 39034 ft | 433 kts | 186° |
| 2026-04-28 15:41 | 45.10663 | 2.93587 | 39033 ft | 431 kts | 186° |
| 2026-04-28 15:42 | 45.04674 | 2.93428 | 39032 ft | 429 kts | 186° |
| 2026-04-28 15:42 | 44.98718 | 2.93270 | 39037 ft | 427 kts | 186° |
| 2026-04-28 15:43 | 44.92786 | 2.93112 | 39038 ft | 426 kts | 186° |
| 2026-04-28 15:43 | 44.86877 | 2.92955 | 39046 ft | 424 kts | 186° |
| 2026-04-28 15:44 | 44.80983 | 2.92708 | 39037 ft | 423 kts | 188° |
| 2026-04-28 15:44 | 44.75114 | 2.92250 | 39049 ft | 422 kts | 188° |
| 2026-04-28 15:45 | 44.69252 | 2.91780 | 39038 ft | 423 kts | 188° |
| 2026-04-28 15:45 | 44.63404 | 2.91335 | 39036 ft | 424 kts | 188° |
| 2026-04-28 15:46 | 44.57509 | 2.90902 | 39028 ft | 425 kts | 188° |
| 2026-04-28 15:46 | 44.51592 | 2.90472 | 39033 ft | 427 kts | 188° |
| 2026-04-28 15:47 | 44.45652 | 2.90042 | 39039 ft | 427 kts | 188° |
| 2026-04-28 15:47 | 44.39683 | 2.89608 | 38638 ft | 435 kts | 188° |
| 2026-04-28 15:48 | 44.36663 | 2.89389 | 38082 ft | 433 kts | 188° |
| 2026-04-28 15:48 | 44.33665 | 2.89174 | 37562 ft | 430 kts | 188° |
| 2026-04-28 15:48 | 44.30681 | 2.88961 | 37022 ft | 428 kts | 187° |
| 2026-04-28 15:48 | 44.27723 | 2.88750 | 36653 ft | 422 kts | 187° |
| 2026-04-28 15:49 | 44.24810 | 2.88542 | 36232 ft | 418 kts | 187° |
| 2026-04-28 15:49 | 44.21913 | 2.88335 | 35837 ft | 414 kts | 187° |
| 2026-04-28 15:49 | 44.19054 | 2.88130 | 35436 ft | 410 kts | 187° |
| 2026-04-28 15:49 | 44.16223 | 2.87926 | 35035 ft | 406 kts | 187° |
| 2026-04-28 15:50 | 44.13414 | 2.87723 | 34659 ft | 402 kts | 187° |
| 2026-04-28 15:50 | 44.10632 | 2.87523 | 34267 ft | 399 kts | 187° |
| 2026-04-28 15:50 | 44.07869 | 2.87325 | 33870 ft | 395 kts | 187° |
| 2026-04-28 15:50 | 44.05137 | 2.87131 | 33448 ft | 392 kts | 187° |
| 2026-04-28 15:51 | 44.02418 | 2.86936 | 33063 ft | 388 kts | 187° |
| 2026-04-28 15:51 | 43.99735 | 2.86743 | 32675 ft | 385 kts | 187° |
| 2026-04-28 15:51 | 43.97073 | 2.86553 | 32298 ft | 382 kts | 187° |
| 2026-04-28 15:51 | 43.94429 | 2.86364 | 31918 ft | 379 kts | 187° |
| 2026-04-28 15:52 | 43.91804 | 2.86176 | 31554 ft | 376 kts | 187° |
| 2026-04-28 15:52 | 43.89192 | 2.85990 | 31192 ft | 374 kts | 187° |
| 2026-04-28 15:52 | 43.86603 | 2.85805 | 30825 ft | 372 kts | 187° |
| 2026-04-28 15:52 | 43.84022 | 2.85621 | 30472 ft | 370 kts | 187° |
| 2026-04-28 15:53 | 43.81460 | 2.85439 | 30111 ft | 368 kts | 186° |
| 2026-04-28 15:53 | 43.78903 | 2.85258 | 29696 ft | 366 kts | 186° |
| 2026-04-28 15:53 | 43.76371 | 2.85153 | 29406 ft | 361 kts | 184° |
| 2026-04-28 15:53 | 43.73867 | 2.85168 | 29057 ft | 359 kts | 183° |
| 2026-04-28 15:54 | 43.71328 | 2.85220 | 28722 ft | 375 kts | 182° |
| 2026-04-28 15:54 | 43.68639 | 2.85278 | 28332 ft | 398 kts | 182° |
| 2026-04-28 15:54 | 43.65793 | 2.85335 | 27911 ft | 419 kts | 182° |
| 2026-04-28 15:54 | 43.62866 | 2.85393 | 27447 ft | 420 kts | 182° |
| 2026-04-28 15:55 | 43.59950 | 2.85451 | 27000 ft | 418 kts | 182° |
| 2026-04-28 15:55 | 43.57043 | 2.85506 | 26573 ft | 414 kts | 182° |
| 2026-04-28 15:55 | 43.54178 | 2.85554 | 26159 ft | 411 kts | 182° |
| 2026-04-28 15:55 | 43.51324 | 2.85595 | 25725 ft | 409 kts | 182° |
| 2026-04-28 15:56 | 43.48491 | 2.85637 | 25318 ft | 406 kts | 182° |
| 2026-04-28 15:56 | 43.45671 | 2.85679 | 24911 ft | 405 kts | 182° |
| 2026-04-28 15:56 | 43.42891 | 2.85720 | 24512 ft | 404 kts | 182° |
| 2026-04-28 15:56 | 43.40056 | 2.85762 | 24093 ft | 402 kts | 182° |
| 2026-04-28 15:57 | 43.37262 | 2.85802 | 23673 ft | 401 kts | 182° |
| 2026-04-28 15:57 | 43.34474 | 2.85842 | 23205 ft | 399 kts | 182° |
| 2026-04-28 15:57 | 43.31707 | 2.85882 | 22742 ft | 397 kts | 182° |
| 2026-04-28 15:57 | 43.28991 | 2.85922 | 22332 ft | 394 kts | 182° |
| 2026-04-28 15:58 | 43.26233 | 2.85963 | 21911 ft | 390 kts | 182° |
| 2026-04-28 15:58 | 43.23527 | 2.86003 | 21517 ft | 387 kts | 182° |
| 2026-04-28 15:58 | 43.20876 | 2.86041 | 21109 ft | 385 kts | 182° |
| 2026-04-28 15:58 | 43.18212 | 2.86080 | 20704 ft | 382 kts | 182° |
| 2026-04-28 15:59 | 43.15556 | 2.86118 | 20307 ft | 380 kts | 182° |
| 2026-04-28 15:59 | 43.13770 | 2.86144 | 20047 ft | 379 kts | 182° |
| 2026-04-28 15:59 | 43.10288 | 2.86194 | 19532 ft | 376 kts | 182° |
| 2026-04-28 15:59 | 43.07677 | 2.86231 | 19145 ft | 375 kts | 182° |
| 2026-04-28 16:00 | 43.05069 | 2.86269 | 18750 ft | 374 kts | 182° |
| 2026-04-28 16:00 | 43.02475 | 2.86306 | 18359 ft | 372 kts | 182° |
| 2026-04-28 16:00 | 42.99889 | 2.86343 | 17927 ft | 370 kts | 182° |
| 2026-04-28 16:00 | 42.97318 | 2.86380 | 17500 ft | 368 kts | 181° |
| 2026-04-28 16:01 | 42.94768 | 2.86417 | 17101 ft | 365 kts | 181° |
| 2026-04-28 16:01 | 42.92237 | 2.86454 | 16719 ft | 361 kts | 181° |
| 2026-04-28 16:01 | 42.89733 | 2.86490 | 16330 ft | 359 kts | 181° |
| 2026-04-28 16:01 | 42.87243 | 2.86525 | 15959 ft | 357 kts | 181° |
| 2026-04-28 16:02 | 42.84761 | 2.86561 | 15583 ft | 355 kts | 181° |
| 2026-04-28 16:02 | 42.82294 | 2.86596 | 15206 ft | 354 kts | 181° |
| 2026-04-28 16:02 | 42.79831 | 2.86631 | 14830 ft | 353 kts | 181° |
| 2026-04-28 16:02 | 42.77383 | 2.86666 | 14459 ft | 352 kts | 181° |
| 2026-04-28 16:03 | 42.74937 | 2.86783 | 14079 ft | 352 kts | 174° |
| 2026-04-28 16:03 | 42.72591 | 2.87580 | 13716 ft | 353 kts | 164° |
| 2026-04-28 16:03 | 42.70259 | 2.88622 | 13294 ft | 352 kts | 163° |
| 2026-04-28 16:03 | 42.67909 | 2.89683 | 12896 ft | 350 kts | 163° |
| 2026-04-28 16:04 | 42.65636 | 2.90696 | 12520 ft | 348 kts | 163° |
| 2026-04-28 16:04 | 42.63341 | 2.91705 | 12149 ft | 346 kts | 164° |
| 2026-04-28 16:04 | 42.61053 | 2.92699 | 11774 ft | 343 kts | 164° |
| 2026-04-28 16:04 | 42.58781 | 2.93678 | 11405 ft | 340 kts | 163° |
| 2026-04-28 16:05 | 42.56540 | 2.94642 | 11042 ft | 335 kts | 165° |
| 2026-04-28 16:05 | 42.54330 | 2.95590 | 10679 ft | 330 kts | 164° |
| 2026-04-28 16:05 | 42.52159 | 2.96520 | 10327 ft | 325 kts | 165° |
| 2026-04-28 16:05 | 42.50026 | 2.97434 | 10135 ft | 316 kts | 165° |
| 2026-04-28 16:06 | 42.47923 | 2.98013 | 9932 ft | 301 kts | 182° |
| 2026-04-28 16:06 | 42.45923 | 2.97574 | 9975 ft | 284 kts | 197° |
| 2026-04-28 16:06 | 42.44087 | 2.96849 | 9916 ft | 267 kts | 197° |
| 2026-04-28 16:06 | 42.42308 | 2.96132 | 9451 ft | 266 kts | 197° |
| 2026-04-28 16:07 | 42.40545 | 2.95429 | 9050 ft | 261 kts | 197° |
| 2026-04-28 16:07 | 42.38809 | 2.94747 | 8605 ft | 260 kts | 197° |
| 2026-04-28 16:07 | 42.35360 | 2.93408 | 7992 ft | 259 kts | 197° |
| 2026-04-28 16:08 | 42.33630 | 2.92740 | 7720 ft | 259 kts | 197° |
| 2026-04-28 16:08 | 42.31901 | 2.92071 | 7446 ft | 259 kts | 197° |
| 2026-04-28 16:08 | 42.30172 | 2.91403 | 7186 ft | 259 kts | 197° |
| 2026-04-28 16:09 | 42.26727 | 2.90074 | 6675 ft | 256 kts | 197° |
| 2026-04-28 16:09 | 42.25015 | 2.89415 | 6418 ft | 254 kts | 197° |
| 2026-04-28 16:09 | 42.23318 | 2.88761 | 6131 ft | 252 kts | 197° |
| 2026-04-28 16:10 | 42.19963 | 2.87472 | 5614 ft | 249 kts | 196° |
| 2026-04-28 16:10 | 42.18302 | 2.86834 | 5344 ft | 247 kts | 196° |
| 2026-04-28 16:10 | 42.15030 | 2.85579 | 4844 ft | 244 kts | 196° |
| 2026-04-28 16:11 | 42.11768 | 2.84313 | 4404 ft | 237 kts | 196° |
| 2026-04-28 16:11 | 42.08659 | 2.83097 | 3918 ft | 234 kts | 195° |
| 2026-04-28 16:12 | 42.05511 | 2.81905 | 3302 ft | 234 kts | 195° |
| 2026-04-28 16:12 | 42.03978 | 2.81324 | 2993 ft | 224 kts | 195° |
| 2026-04-28 16:13 | 42.01068 | 2.80221 | 2476 ft | 208 kts | 195° |
| 2026-04-28 16:13 | 41.99708 | 2.79705 | 2176 ft | 198 kts | 194° |
| 2026-04-28 16:13 | 41.97233 | 2.78764 | 1694 ft | 169 kts | 192° |
| 2026-04-28 16:14 | 41.95137 | 2.77970 | 1283 ft | 141 kts | 192° |
| 2026-04-28 16:14 | 41.93268 | 2.77260 | 901 ft | 134 kts | 193° |
| 2026-04-28 16:15 | 41.91446 | 2.76568 | 534 ft | 142 kts | 193° |
| 2026-04-28 16:15 | 41.90526 | 2.76215 | 456 ft | 122 kts | 195° |
| 2026-04-28 16:15 | 41.89908 | 2.75986 | 420 ft | 64 kts | 195° |
| 2026-04-28 16:16 | 41.89521 | 2.75914 | 410 ft | 14 kts | 99° |
| 2026-04-28 16:16 | 41.89561 | 2.76030 | 410 ft | 14 kts | 62° |
| 2026-04-28 16:17 | 41.89712 | 2.76141 | 413 ft | 13 kts | 15° |
| 2026-04-28 16:17 | 41.89769 | 2.76162 | 415 ft | 13 kts | 15° |
| 2026-04-28 16:17 | 41.89863 | 2.76199 | 425 ft | 15 kts | 15° |
| 2026-04-28 16:17 | 41.89906 | 2.76264 | 425 ft | 12 kts | 100° |
| 2026-04-28 16:18 | 41.89874 | 2.76391 | 413 ft | 16 kts | 114° |
| 2026-04-28 16:18 | 41.89855 | 2.76468 | 412 ft | 3 kts | 106° |
| 2026-04-28 16:18 | 41.89853 | 2.76478 | 416 ft | 0 kts | 106° |